Terminal Aerodrome Forecast
Issued by NWS

Home | Current Version | Previous Version | Graphics & Text | Print | Product List | Glossary On
Versions: 1 2 3 4 5 6 7 8 9 10 11 12 13 14 15 16
026
FTUS43 KIWX 191734
TAFSBN
TAF
KSBN 191734Z 1918/2018 27008KT P6SM SKC
     FM192200 32006KT P6SM FEW250
     FM200200 VRB03KT P6SM FEW250
     FM200600 11004KT 3SM BR FEW150
     FM200900 12005KT 1/2SM FG BKN004
     FM201400 13007KT 1SM BR BKN006
     FM201700 15010KT 6SM BR SCT150=

USA.gov is the U.S. government's official web portal to all federal, state and local government web resources and services.